Irondale, Missouri
Current Conditions -  °F | °C
As of 11:15 AM on Thursday 18 Dec 2014 (Local Time) from KFAM Reporting Station
Overcast Overcast  
Wind Chill: 26°   Ceiling: 600
Heat Index: 32°   Visibility: 7mi
Dew Point: 32°   Wind: 6mph
Humidity: 100%   Direction: 10°N
Pressure: 30.26"   Gusts: NA
Location:  37.83°N, 90.68°W
Report Text: KFAM 181715Z AUTO 01005KT 7SM OVC006 00/00 A3026 RMK AO1
Loading
Personal Weather Stations






























Interactive Weather Map New forecast layout! Learn more

10-Day Weather Forecast

Advertisements
Track Severe Weather on mobile